sensor_id;sensor_type;location;lat;lon;timestamp;pressure;altitude;pressure_sealevel;temperature;humidity
29549;BME280;16487;53.094;8.800;2023-02-04T00:02:03;101877.97;;;5.54;100.00
29549;BME280;16487;53.094;8.800;2023-02-04T00:04:30;101890.59;;;5.51;100.00
29549;BME280;16487;53.094;8.800;2023-02-04T00:06:59;101890.81;;;5.36;100.00
29549;BME280;16487;53.094;8.800;2023-02-04T00:09:26;101907.75;;;5.31;100.00
29549;BME280;16487;53.094;8.800;2023-02-04T00:11:53;101918.72;;;5.24;100.00
29549;BME280;16487;53.094;8.800;2023-02-04T00:14:20;101927.75;;;5.17;100.00
29549;BME280;16487;53.094;8.800;2023-02-04T00:16:48;101932.81;;;5.12;100.00
29549;BME280;16487;53.094;8.800;2023-02-04T00:19:15;101958.00;;;5.07;100.00
29549;BME280;16487;53.094;8.800;2023-02-04T00:21:42;101968.31;;;5.10;100.00
29549;BME280;16487;53.094;8.800;2023-02-04T00:24:11;101990.41;;;5.10;100.00
29549;BME280;16487;53.094;8.800;2023-02-04T00:26:38;101999.03;;;5.05;100.00
29549;BME280;16487;53.094;8.800;2023-02-04T00:29:06;102007.75;;;5.07;100.00
29549;BME280;16487;53.094;8.800;2023-02-04T00:31:33;102021.22;;;5.12;100.00
29549;BME280;16487;53.094;8.800;2023-02-04T00:34:00;102028.72;;;5.11;100.00
29549;BME280;16487;53.094;8.800;2023-02-04T00:36:29;102047.59;;;5.06;100.00
29549;BME280;16487;53.094;8.800;2023-02-04T00:38:56;102050.34;;;5.06;100.00
29549;BME280;16487;53.094;8.800;2023-02-04T00:41:25;102062.84;;;4.96;100.00
29549;BME280;16487;53.094;8.800;2023-02-04T00:43:52;102061.94;;;4.89;100.00
29549;BME280;16487;53.094;8.800;2023-02-04T00:46:19;102061.88;;;4.85;100.00
29549;BME280;16487;53.094;8.800;2023-02-04T00:48:47;102073.31;;;4.84;100.00
29549;BME280;16487;53.094;8.800;2023-02-04T00:51:14;102093.81;;;4.83;100.00
29549;BME280;16487;53.094;8.800;2023-02-04T00:53:41;102101.63;;;4.77;100.00
29549;BME280;16487;53.094;8.800;2023-02-04T00:56:08;102097.22;;;4.73;100.00
29549;BME280;16487;53.094;8.800;2023-02-04T00:58:37;102122.34;;;4.64;100.00
29549;BME280;16487;53.094;8.800;2023-02-04T01:01:04;102136.47;;;4.62;100.00
29549;BME280;16487;53.094;8.800;2023-02-04T01:03:32;102139.63;;;4.61;100.00
29549;BME280;16487;53.094;8.800;2023-02-04T01:05:59;102143.50;;;4.56;100.00
29549;BME280;16487;53.094;8.800;2023-02-04T01:08:27;102155.22;;;4.50;100.00
29549;BME280;16487;53.094;8.800;2023-02-04T01:10:54;102159.19;;;4.52;100.00
29549;BME280;16487;53.094;8.800;2023-02-04T01:13:22;102174.16;;;4.51;100.00
29549;BME280;16487;53.094;8.800;2023-02-04T01:15:50;102183.16;;;4.48;100.00
29549;BME280;16487;53.094;8.800;2023-02-04T01:18:18;102192.91;;;4.42;100.00
29549;BME280;16487;53.094;8.800;2023-02-04T01:20:45;102199.19;;;4.39;100.00
29549;BME280;16487;53.094;8.800;2023-02-04T01:23:12;102210.22;;;4.39;100.00
29549;BME280;16487;53.094;8.800;2023-02-04T01:25:40;102226.63;;;4.32;100.00
29549;BME280;16487;53.094;8.800;2023-02-04T01:28:07;102232.16;;;4.32;100.00
29549;BME280;16487;53.094;8.800;2023-02-04T01:30:34;102241.44;;;4.24;100.00
29549;BME280;16487;53.094;8.800;2023-02-04T01:33:03;102252.53;;;4.28;100.00
29549;BME280;16487;53.094;8.800;2023-02-04T01:35:31;102261.13;;;4.23;100.00
29549;BME280;16487;53.094;8.800;2023-02-04T01:37:58;102261.19;;;4.26;100.00
29549;BME280;16487;53.094;8.800;2023-02-04T01:40:26;102262.06;;;4.30;100.00
29549;BME280;16487;53.094;8.800;2023-02-04T01:42:54;102270.72;;;4.29;100.00
29549;BME280;16487;53.094;8.800;2023-02-04T01:45:21;102285.59;;;4.24;100.00
29549;BME280;16487;53.094;8.800;2023-02-04T01:47:48;102291.03;;;4.21;100.00
29549;BME280;16487;53.094;8.800;2023-02-04T01:50:17;102298.16;;;4.22;100.00
29549;BME280;16487;53.094;8.800;2023-02-04T01:52:45;102299.75;;;4.23;100.00
29549;BME280;16487;53.094;8.800;2023-02-04T01:55:15;102310.00;;;4.22;100.00
29549;BME280;16487;53.094;8.800;2023-02-04T01:57:44;102310.72;;;4.19;100.00
29549;BME280;16487;53.094;8.800;2023-02-04T02:00:15;102310.72;;;4.19;100.00
29549;BME280;16487;53.094;8.800;2023-02-04T02:02:45;102316.53;;;4.14;100.00
29549;BME280;16487;53.094;8.800;2023-02-04T02:05:16;102327.13;;;4.12;100.00
29549;BME280;16487;53.094;8.800;2023-02-04T02:07:46;102327.84;;;4.09;100.00
29549;BME280;16487;53.094;8.800;2023-02-04T02:10:14;102342.38;;;4.06;100.00
29549;BME280;16487;53.094;8.800;2023-02-04T02:12:43;102352.94;;;4.04;100.00
29549;BME280;16487;53.094;8.800;2023-02-04T02:15:12;102376.59;;;4.05;100.00
29549;BME280;16487;53.094;8.800;2023-02-04T02:17:40;102382.13;;;4.05;100.00
29549;BME280;16487;53.094;8.800;2023-02-04T02:20:09;102399.69;;;3.97;100.00
29549;BME280;16487;53.094;8.800;2023-02-04T02:22:41;102417.59;;;3.88;100.00
29549;BME280;16487;53.094;8.800;2023-02-04T02:25:13;102421.84;;;3.85;100.00
29549;BME280;16487;53.094;8.800;2023-02-04T02:27:42;102426.91;;;3.83;100.00
29549;BME280;16487;53.094;8.800;2023-02-04T02:30:10;102438.94;;;3.75;100.00
29549;BME280;16487;53.094;8.800;2023-02-04T02:32:38;102453.34;;;3.84;100.00
29549;BME280;16487;53.094;8.800;2023-02-04T02:35:07;102461.88;;;3.79;100.00
29549;BME280;16487;53.094;8.800;2023-02-04T02:37:34;102462.31;;;3.81;100.00
29549;BME280;16487;53.094;8.800;2023-02-04T02:40:02;102471.84;;;3.84;100.00
29549;BME280;16487;53.094;8.800;2023-02-04T02:42:31;102479.22;;;3.95;100.00
29549;BME280;16487;53.094;8.800;2023-02-04T02:44:59;102489.13;;;3.96;100.00
29549;BME280;16487;53.094;8.800;2023-02-04T02:47:28;102491.25;;;4.03;100.00
29549;BME280;16487;53.094;8.800;2023-02-04T02:49:55;102499.53;;;4.03;100.00
29549;BME280;16487;53.094;8.800;2023-02-04T02:52:22;102500.56;;;3.98;100.00
29549;BME280;16487;53.094;8.800;2023-02-04T02:54:50;102493.19;;;4.02;100.00
29549;BME280;16487;53.094;8.800;2023-02-04T02:57:20;102492.13;;;3.91;100.00
29549;BME280;16487;53.094;8.800;2023-02-04T02:59:49;102489.69;;;3.74;100.00
29549;BME280;16487;53.094;8.800;2023-02-04T03:02:19;102494.78;;;3.72;100.00
29549;BME280;16487;53.094;8.800;2023-02-04T03:04:49;102507.75;;;3.56;100.00
29549;BME280;16487;53.094;8.800;2023-02-04T03:07:22;102502.94;;;3.53;100.00
29549;BME280;16487;53.094;8.800;2023-02-04T03:09:49;102516.69;;;3.37;100.00
29549;BME280;16487;53.094;8.800;2023-02-04T03:12:17;102525.25;;;3.36;100.00
29549;BME280;16487;53.094;8.800;2023-02-04T03:14:44;102534.50;;;3.28;100.00
29549;BME280;16487;53.094;8.800;2023-02-04T03:17:13;102535.56;;;3.23;100.00
29549;BME280;16487;53.094;8.800;2023-02-04T03:19:41;102526.47;;;3.23;100.00
29549;BME280;16487;53.094;8.800;2023-02-04T03:22:08;102559.53;;;3.23;100.00
29549;BME280;16487;53.094;8.800;2023-02-04T03:24:37;102570.25;;;3.12;100.00
29549;BME280;16487;53.094;8.800;2023-02-04T03:27:05;102572.19;;;3.12;100.00
29549;BME280;16487;53.094;8.800;2023-02-04T03:29:33;102583.09;;;3.08;100.00
29549;BME280;16487;53.094;8.800;2023-02-04T03:32:00;102595.28;;;3.07;100.00
29549;BME280;16487;53.094;8.800;2023-02-04T03:34:29;102626.16;;;3.13;100.00
29549;BME280;16487;53.094;8.800;2023-02-04T03:36:56;102636.94;;;3.06;100.00
29549;BME280;16487;53.094;8.800;2023-02-04T03:39:24;102649.31;;;3.00;100.00
29549;BME280;16487;53.094;8.800;2023-02-04T03:41:51;102668.06;;;2.94;100.00
29549;BME280;16487;53.094;8.800;2023-02-04T03:44:18;102666.31;;;3.02;100.00
29549;BME280;16487;53.094;8.800;2023-02-04T03:46:45;102668.50;;;2.96;100.00
29549;BME280;16487;53.094;8.800;2023-02-04T03:49:13;102662.44;;;2.91;100.00
29549;BME280;16487;53.094;8.800;2023-02-04T03:51:41;102665.06;;;2.87;100.00
29549;BME280;16487;53.094;8.800;2023-02-04T03:54:09;102672.28;;;2.80;100.00
29549;BME280;16487;53.094;8.800;2023-02-04T03:56:36;102682.13;;;2.81;100.00
29549;BME280;16487;53.094;8.800;2023-02-04T03:59:03;102683.19;;;2.76;100.00
29549;BME280;16487;53.094;8.800;2023-02-04T04:01:31;102690.84;;;2.71;100.00
29549;BME280;16487;53.094;8.800;2023-02-04T04:03:58;102685.59;;;2.78;100.00
29549;BME280;16487;53.094;8.800;2023-02-04T04:06:25;102688.69;;;2.88;100.00
29549;BME280;16487;53.094;8.800;2023-02-04T04:08:54;102690.28;;;2.77;100.00
29549;BME280;16487;53.094;8.800;2023-02-04T04:11:21;102711.28;;;2.70;100.00
29549;BME280;16487;53.094;8.800;2023-02-04T04:13:49;102712.88;;;2.71;100.00
29549;BME280;16487;53.094;8.800;2023-02-04T04:16:16;102726.63;;;2.59;100.00
29549;BME280;16487;53.094;8.800;2023-02-04T04:18:43;102725.25;;;2.65;100.00
29549;BME280;16487;53.094;8.800;2023-02-04T04:21:10;102738.22;;;2.64;100.00
29549;BME280;16487;53.094;8.800;2023-02-04T04:23:38;102744.75;;;2.60;100.00
29549;BME280;16487;53.094;8.800;2023-02-04T04:26:06;102748.88;;;2.66;100.00
29549;BME280;16487;53.094;8.800;2023-02-04T04:28:34;102767.00;;;2.67;100.00
29549;BME280;16487;53.094;8.800;2023-02-04T04:31:01;102778.81;;;2.67;100.00
29549;BME280;16487;53.094;8.800;2023-02-04T04:33:28;102787.16;;;2.59;100.00
29549;BME280;16487;53.094;8.800;2023-02-04T04:35:56;102789.06;;;2.46;100.00
29549;BME280;16487;53.094;8.800;2023-02-04T04:38:23;102785.66;;;2.49;100.00
29549;BME280;16487;53.094;8.800;2023-02-04T04:40:50;102784.50;;;2.50;100.00
29549;BME280;16487;53.094;8.800;2023-02-04T04:43:19;102789.53;;;2.48;100.00
29549;BME280;16487;53.094;8.800;2023-02-04T04:45:46;102800.41;;;2.45;100.00
29549;BME280;16487;53.094;8.800;2023-02-04T04:48:14;102795.16;;;2.52;100.00
29549;BME280;16487;53.094;8.800;2023-02-04T04:50:41;102791.50;;;2.48;100.00
29549;BME280;16487;53.094;8.800;2023-02-04T04:53:08;102795.59;;;2.42;100.00
29549;BME280;16487;53.094;8.800;2023-02-04T04:55:35;102810.44;;;2.28;100.00
29549;BME280;16487;53.094;8.800;2023-02-04T04:58:03;102814.38;;;2.40;100.00
29549;BME280;16487;53.094;8.800;2023-02-04T05:00:32;102811.50;;;2.36;100.00
29549;BME280;16487;53.094;8.800;2023-02-04T05:02:59;102824.53;;;2.48;100.00
29549;BME280;16487;53.094;8.800;2023-02-04T05:05:27;102836.19;;;2.45;100.00
29549;BME280;16487;53.094;8.800;2023-02-04T05:07:54;102827.06;;;2.53;100.00
29549;BME280;16487;53.094;8.800;2023-02-04T05:10:21;102841.47;;;2.50;100.00
29549;BME280;16487;53.094;8.800;2023-02-04T05:12:48;102854.13;;;2.51;100.00
29549;BME280;16487;53.094;8.800;2023-02-04T05:15:16;102836.09;;;2.53;100.00
29549;BME280;16487;53.094;8.800;2023-02-04T05:17:45;102834.16;;;2.54;100.00
29549;BME280;16487;53.094;8.800;2023-02-04T05:20:12;102840.81;;;2.53;100.00
29549;BME280;16487;53.094;8.800;2023-02-04T05:22:39;102840.16;;;2.56;100.00
29549;BME280;16487;53.094;8.800;2023-02-04T05:25:07;102841.69;;;2.45;100.00
29549;BME280;16487;53.094;8.800;2023-02-04T05:27:34;102839.81;;;2.57;100.00
29549;BME280;16487;53.094;8.800;2023-02-04T05:30:02;102847.47;;;2.52;100.00
29549;BME280;16487;53.094;8.800;2023-02-04T05:32:29;102840.97;;;2.56;100.00
29549;BME280;16487;53.094;8.800;2023-02-04T05:34:57;102836.31;;;2.48;100.00
29549;BME280;16487;53.094;8.800;2023-02-04T05:37:25;102841.81;;;2.48;100.00
29549;BME280;16487;53.094;8.800;2023-02-04T05:39:52;102832.56;;;2.53;100.00
29549;BME280;16487;53.094;8.800;2023-02-04T05:42:19;102834.03;;;2.50;100.00
29549;BME280;16487;53.094;8.800;2023-02-04T05:44:46;102836.19;;;2.45;100.00
29549;BME280;16487;53.094;8.800;2023-02-04T05:47:14;102827.47;;;2.43;100.00
29549;BME280;16487;53.094;8.800;2023-02-04T05:49:41;102820.28;;;2.50;100.00
29549;BME280;16487;53.094;8.800;2023-02-04T05:52:10;102822.69;;;2.52;100.00
29549;BME280;16487;53.094;8.800;2023-02-04T05:54:37;102832.50;;;2.41;100.00
29549;BME280;16487;53.094;8.800;2023-02-04T05:57:04;102843.97;;;2.43;100.00
29549;BME280;16487;53.094;8.800;2023-02-04T05:59:31;102858.28;;;2.36;100.00
29549;BME280;16487;53.094;8.800;2023-02-04T06:01:59;102864.13;;;2.34;100.00
29549;BME280;16487;53.094;8.800;2023-02-04T06:04:26;102873.53;;;2.33;100.00
29549;BME280;16487;53.094;8.800;2023-02-04T06:06:53;102876.28;;;2.33;100.00
29549;BME280;16487;53.094;8.800;2023-02-04T06:09:22;102873.53;;;2.33;100.00
29549;BME280;16487;53.094;8.800;2023-02-04T06:11:49;102866.66;;;2.40;100.00
29549;BME280;16487;53.094;8.800;2023-02-04T06:14:16;102873.97;;;2.35;100.00
29549;BME280;16487;53.094;8.800;2023-02-04T06:16:44;102882.91;;;2.32;100.00
29549;BME280;16487;53.094;8.800;2023-02-04T06:19:11;102887.72;;;2.35;100.00
29549;BME280;16487;53.094;8.800;2023-02-04T06:21:38;102879.94;;;2.38;100.00
29549;BME280;16487;53.094;8.800;2023-02-04T06:24:06;102886.81;;;2.31;100.00
29549;BME280;16487;53.094;8.800;2023-02-04T06:26:35;102891.34;;;2.27;100.00
29549;BME280;16487;53.094;8.800;2023-02-04T06:29:02;102886.03;;;2.22;100.00
29549;BME280;16487;53.094;8.800;2023-02-04T06:31:29;102877.31;;;2.20;100.00
29549;BME280;16487;53.094;8.800;2023-02-04T06:33:57;102908.13;;;2.14;100.00
29549;BME280;16487;53.094;8.800;2023-02-04T06:36:24;102896.00;;;2.06;100.00
29549;BME280;16487;53.094;8.800;2023-02-04T06:38:51;102892.78;;;2.04;100.00
29549;BME280;16487;53.094;8.800;2023-02-04T06:41:19;102896.25;;;1.93;100.00
29549;BME280;16487;53.094;8.800;2023-02-04T06:43:48;102898.38;;;1.87;100.00
29549;BME280;16487;53.094;8.800;2023-02-04T06:46:15;102906.16;;;1.85;100.00
29549;BME280;16487;53.094;8.800;2023-02-04T06:48:42;102910.25;;;1.79;100.00
29549;BME280;16487;53.094;8.800;2023-02-04T06:51:09;102909.09;;;1.80;100.00
29549;BME280;16487;53.094;8.800;2023-02-04T06:53:37;102915.13;;;1.74;100.00
29549;BME280;16487;53.094;8.800;2023-02-04T06:56:04;102923.03;;;1.75;100.00
29549;BME280;16487;53.094;8.800;2023-02-04T06:58:32;102930.34;;;1.71;100.00
29549;BME280;16487;53.094;8.800;2023-02-04T07:01:00;102938.53;;;1.80;100.00
29549;BME280;16487;53.094;8.800;2023-02-04T07:03:28;102944.09;;;1.71;100.00
29549;BME280;16487;53.094;8.800;2023-02-04T07:05:55;102954.94;;;1.68;100.00
29549;BME280;16487;53.094;8.800;2023-02-04T07:08:22;102958.78;;;1.67;100.00
29549;BME280;16487;53.094;8.800;2023-02-04T07:10:50;102979.03;;;1.62;100.00
29549;BME280;16487;53.094;8.800;2023-02-04T07:13:17;102981.78;;;1.62;100.00
29549;BME280;16487;53.094;8.800;2023-02-04T07:15:44;102984.53;;;1.62;100.00
29549;BME280;16487;53.094;8.800;2023-02-04T07:18:13;102976.59;;;1.69;100.00
29549;BME280;16487;53.094;8.800;2023-02-04T07:20:40;102975.78;;;1.69;100.00
29549;BME280;16487;53.094;8.800;2023-02-04T07:23:08;102970.41;;;1.72;100.00
29549;BME280;16487;53.094;8.800;2023-02-04T07:25:35;102969.56;;;1.80;100.00
29549;BME280;16487;53.094;8.800;2023-02-04T07:28:02;102962.28;;;1.84;100.00
29549;BME280;16487;53.094;8.800;2023-02-04T07:30:30;102950.13;;;1.94;100.00
29549;BME280;16487;53.094;8.800;2023-02-04T07:32:58;102956.28;;;1.91;100.00
29549;BME280;16487;53.094;8.800;2023-02-04T07:35:26;102954.63;;;1.98;100.00
29549;BME280;16487;53.094;8.800;2023-02-04T07:37:53;102950.28;;;2.26;100.00
29549;BME280;16487;53.094;8.800;2023-02-04T07:40:21;102948.88;;;2.41;100.00
29549;BME280;16487;53.094;8.800;2023-02-04T07:42:48;102946.84;;;2.29;100.00
29549;BME280;16487;53.094;8.800;2023-02-04T07:45:17;102950.22;;;2.06;100.00
29549;BME280;16487;53.094;8.800;2023-02-04T07:47:44;102949.28;;;2.02;100.00
29549;BME280;16487;53.094;8.800;2023-02-04T07:50:12;102950.72;;;1.99;100.00
29549;BME280;16487;53.094;8.800;2023-02-04T07:52:41;102957.09;;;1.91;100.00
29549;BME280;16487;53.094;8.800;2023-02-04T07:55:08;102943.34;;;1.91;100.00
29549;BME280;16487;53.094;8.800;2023-02-04T07:57:35;102951.59;;;1.91;100.00
29549;BME280;16487;53.094;8.800;2023-02-04T08:00:04;102939.44;;;1.92;100.00
29549;BME280;16487;53.094;8.800;2023-02-04T08:02:39;102936.53;;;1.97;100.00
29549;BME280;16487;53.094;8.800;2023-02-04T08:05:07;102934.38;;;2.03;100.00
29549;BME280;16487;53.094;8.800;2023-02-04T08:07:34;102938.50;;;2.17;100.00
29549;BME280;16487;53.094;8.800;2023-02-04T08:10:03;102944.78;;;2.26;100.00
29549;BME280;16487;53.094;8.800;2023-02-04T08:12:31;102957.84;;;2.29;100.00
29549;BME280;16487;53.094;8.800;2023-02-04T08:14:58;102944.19;;;2.42;100.00
29549;BME280;16487;53.094;8.800;2023-02-04T08:17:25;102943.72;;;2.60;100.00
29549;BME280;16487;53.094;8.800;2023-02-04T08:19:53;102936.69;;;2.71;100.00
29549;BME280;16487;53.094;8.800;2023-02-04T08:22:20;102930.69;;;2.69;100.00
29549;BME280;16487;53.094;8.800;2023-02-04T08:24:48;102929.50;;;2.79;100.00
29549;BME280;16487;53.094;8.800;2023-02-04T08:27:17;102932.03;;;2.84;100.00
29549;BME280;16487;53.094;8.800;2023-02-04T08:29:44;102932.19;;;2.87;100.00
29549;BME280;16487;53.094;8.800;2023-02-04T08:32:11;102928.66;;;2.99;100.00
29549;BME280;16487;53.094;8.800;2023-02-04T08:34:39;102923.41;;;3.06;100.00
29549;BME280;16487;53.094;8.800;2023-02-04T08:37:06;102920.19;;;3.04;100.00
29549;BME280;16487;53.094;8.800;2023-02-04T08:39:34;102902.53;;;3.17;100.00
29549;BME280;16487;53.094;8.800;2023-02-04T08:42:01;102902.22;;;3.18;100.00
29549;BME280;16487;53.094;8.800;2023-02-04T08:44:30;102905.84;;;3.10;100.00
29549;BME280;16487;53.094;8.800;2023-02-04T08:46:57;102902.53;;;3.17;100.00
29549;BME280;16487;53.094;8.800;2023-02-04T08:49:25;102893.16;;;3.30;100.00
29549;BME280;16487;53.094;8.800;2023-02-04T08:51:52;102899.63;;;3.34;100.00
29549;BME280;16487;53.094;8.800;2023-02-04T08:54:19;102887.81;;;3.45;100.00
29549;BME280;16487;53.094;8.800;2023-02-04T08:56:47;102875.50;;;3.55;100.00
29549;BME280;16487;53.094;8.800;2023-02-04T08:59:14;102876.69;;;3.66;100.00
29549;BME280;16487;53.094;8.800;2023-02-04T09:01:43;102871.84;;;3.75;100.00
29549;BME280;16487;53.094;8.800;2023-02-04T09:04:10;102867.47;;;3.98;100.00
29549;BME280;16487;53.094;8.800;2023-02-04T09:06:38;102844.47;;;4.06;100.00
29549;BME280;16487;53.094;8.800;2023-02-04T09:09:05;102831.31;;;4.27;100.00
29549;BME280;16487;53.094;8.800;2023-02-04T09:11:32;102823.09;;;4.15;100.00
29549;BME280;16487;53.094;8.800;2023-02-04T09:14:00;102818.81;;;4.18;100.00
29549;BME280;16487;53.094;8.800;2023-02-04T09:16:27;102818.44;;;4.19;100.00
29549;BME280;16487;53.094;8.800;2023-02-04T09:18:56;102807.59;;;3.99;100.00
29549;BME280;16487;53.094;8.800;2023-02-04T09:21:24;102804.00;;;4.10;100.00
29549;BME280;16487;53.094;8.800;2023-02-04T09:23:51;102790.28;;;4.26;100.00
29549;BME280;16487;53.094;8.800;2023-02-04T09:26:18;102769.19;;;4.33;100.00
29549;BME280;16487;53.094;8.800;2023-02-04T09:28:45;102770.50;;;4.24;100.00
29549;BME280;16487;53.094;8.800;2023-02-04T09:31:13;102755.63;;;4.28;100.00
29549;BME280;16487;53.094;8.800;2023-02-04T09:33:41;102757.25;;;4.29;100.00
29549;BME280;16487;53.094;8.800;2023-02-04T09:36:09;102743.88;;;4.31;100.00
29549;BME280;16487;53.094;8.800;2023-02-04T09:38:37;102722.13;;;4.14;100.00
29549;BME280;16487;53.094;8.800;2023-02-04T09:41:06;102709.88;;;4.27;100.00
29549;BME280;16487;53.094;8.800;2023-02-04T09:43:37;102708.31;;;4.14;100.00
29549;BME280;16487;53.094;8.800;2023-02-04T09:46:07;102692.22;;;4.16;100.00
29549;BME280;16487;53.094;8.800;2023-02-04T09:48:36;102671.75;;;4.17;100.00
29549;BME280;16487;53.094;8.800;2023-02-04T09:51:06;102675.16;;;4.26;100.00
29549;BME280;16487;53.094;8.800;2023-02-04T09:53:35;102669.75;;;4.45;100.00
29549;BME280;16487;53.094;8.800;2023-02-04T09:56:04;102645.63;;;4.42;100.00
29549;BME280;16487;53.094;8.800;2023-02-04T09:58:33;102640.00;;;4.54;100.00
29549;BME280;16487;53.094;8.800;2023-02-04T10:01:08;102628.59;;;4.56;100.00
29549;BME280;16487;53.094;8.800;2023-02-04T10:03:38;102629.13;;;4.77;100.00
29549;BME280;16487;53.094;8.800;2023-02-04T10:06:07;102618.69;;;5.02;100.00
29549;BME280;16487;53.094;8.800;2023-02-04T10:08:36;102608.28;;;5.30;100.00
29549;BME280;16487;53.094;8.800;2023-02-04T10:11:03;102581.94;;;5.36;100.00
29549;BME280;16487;53.094;8.800;2023-02-04T10:13:33;102560.69;;;5.40;100.00
29549;BME280;16487;53.094;8.800;2023-02-04T10:16:07;102549.13;;;5.34;100.00
29549;BME280;16487;53.094;8.800;2023-02-04T10:18:39;102527.97;;;5.42;100.00
29549;BME280;16487;53.094;8.800;2023-02-04T10:21:13;102509.22;;;5.54;100.00
29549;BME280;16487;53.094;8.800;2023-02-04T10:23:43;102492.22;;;5.75;100.00
29549;BME280;16487;53.094;8.800;2023-02-04T10:26:13;102465.09;;;6.03;100.00
29549;BME280;16487;53.094;8.800;2023-02-04T10:28:41;102436.97;;;6.79;100.00
29549;BME280;16487;53.094;8.800;2023-02-04T10:31:30;102384.44;;;8.21;100.00
29549;BME280;16487;53.094;8.800;2023-02-04T10:34:02;102364.09;;;8.68;100.00
29549;BME280;16487;53.094;8.800;2023-02-04T10:36:30;102387.09;;;8.61;100.00
29549;BME280;16487;53.094;8.800;2023-02-04T10:39:04;102419.97;;;9.45;100.00
29549;BME280;16487;53.094;8.800;2023-02-04T10:41:31;102449.84;;;10.57;100.00
29549;BME280;16487;53.094;8.800;2023-02-04T10:44:03;102548.13;;;7.63;100.00
29549;BME280;16487;53.094;8.800;2023-02-04T10:46:31;102521.56;;;8.02;100.00
29549;BME280;16487;53.094;8.800;2023-02-04T10:48:58;102521.53;;;7.99;100.00
29549;BME280;16487;53.094;8.800;2023-02-04T10:51:26;102548.28;;;8.58;100.00
29549;BME280;16487;53.094;8.800;2023-02-04T10:53:53;102613.94;;;8.80;100.00
29549;BME280;16487;53.094;8.800;2023-02-04T10:56:22;102637.56;;;9.00;100.00
29549;BME280;16487;53.094;8.800;2023-02-04T10:58:49;102633.50;;;9.52;100.00
29549;BME280;16487;53.094;8.800;2023-02-04T11:01:17;102694.81;;;9.04;100.00
29549;BME280;16487;53.094;8.800;2023-02-04T11:03:44;102663.97;;;9.27;100.00
29549;BME280;16487;53.094;8.800;2023-02-04T11:06:19;102695.94;;;8.56;100.00
29549;BME280;16487;53.094;8.800;2023-02-04T11:08:47;102619.84;;;8.71;100.00
29549;BME280;16487;53.094;8.800;2023-02-04T11:11:17;102626.25;;;8.75;100.00
29549;BME280;16487;53.094;8.800;2023-02-04T11:13:58;102622.94;;;8.63;100.00
29549;BME280;16487;53.094;8.800;2023-02-04T11:16:27;102657.34;;;8.11;100.00
29549;BME280;16487;53.094;8.800;2023-02-04T11:18:57;102625.06;;;8.33;100.00
29549;BME280;16487;53.094;8.800;2023-02-04T11:21:26;102651.66;;;8.00;100.00
29549;BME280;16487;53.094;8.800;2023-02-04T11:24:16;102620.00;;;8.45;100.00
29549;BME280;16487;53.094;8.800;2023-02-04T11:26:47;102642.09;;;8.28;100.00
29549;BME280;16487;53.094;8.800;2023-02-04T11:29:27;102652.13;;;8.39;100.00
29549;BME280;16487;53.094;8.800;2023-02-04T11:31:58;102692.19;;;8.78;100.00
29549;BME280;16487;53.094;8.800;2023-02-04T11:34:29;102721.22;;;8.44;100.00
29549;BME280;16487;53.094;8.800;2023-02-04T11:37:14;102709.44;;;9.49;100.00
29549;BME280;16487;53.094;8.800;2023-02-04T11:39:44;102767.41;;;8.92;100.00
29549;BME280;16487;53.094;8.800;2023-02-04T11:42:21;102822.03;;;8.74;100.00
29549;BME280;16487;53.094;8.800;2023-02-04T11:44:51;102875.75;;;9.59;100.00
29549;BME280;16487;53.094;8.800;2023-02-04T11:47:22;102985.56;;;10.05;100.00
29549;BME280;16487;53.094;8.800;2023-02-04T11:49:54;103104.34;;;9.83;100.00
29549;BME280;16487;53.094;8.800;2023-02-04T11:52:22;103192.94;;;11.28;100.00
29549;BME280;16487;53.094;8.800;2023-02-04T11:54:54;103350.88;;;11.25;100.00
29549;BME280;16487;53.094;8.800;2023-02-04T11:57:22;103492.78;;;10.87;100.00
29549;BME280;16487;53.094;8.800;2023-02-04T11:59:51;103508.34;;;10.13;100.00
29549;BME280;16487;53.094;8.800;2023-02-04T12:02:20;103495.63;;;8.90;100.00
29549;BME280;16487;53.094;8.800;2023-02-04T12:04:53;103502.22;;;9.40;100.00
29549;BME280;16487;53.094;8.800;2023-02-04T12:07:23;103489.75;;;9.53;100.00
29549;BME280;16487;53.094;8.800;2023-02-04T12:09:51;103536.19;;;10.58;100.00
29549;BME280;16487;53.094;8.800;2023-02-04T12:12:23;103552.84;;;9.07;100.00
29549;BME280;16487;53.094;8.800;2023-02-04T12:15:12;103484.22;;;8.95;100.00
29549;BME280;16487;53.094;8.800;2023-02-04T12:17:43;103457.41;;;9.25;100.00
29549;BME280;16487;53.094;8.800;2023-02-04T12:20:11;103421.34;;;8.53;100.00
29549;BME280;16487;53.094;8.800;2023-02-04T12:22:38;103379.84;;;8.09;100.00
29549;BME280;16487;53.094;8.800;2023-02-04T12:25:06;103316.47;;;8.15;100.00
29549;BME280;16487;53.094;8.800;2023-02-04T12:27:34;103317.16;;;8.66;100.00
29549;BME280;16487;53.094;8.800;2023-02-04T12:30:01;103331.00;;;8.43;100.00
29549;BME280;16487;53.094;8.800;2023-02-04T12:32:30;103312.84;;;8.68;100.00
29549;BME280;16487;53.094;8.800;2023-02-04T12:34:57;103334.09;;;9.21;100.00
29549;BME280;16487;53.094;8.800;2023-02-04T12:37:24;103378.97;;;9.88;100.00
29549;BME280;16487;53.094;8.800;2023-02-04T12:39:51;103429.22;;;9.27;100.00
29549;BME280;16487;53.094;8.800;2023-02-04T12:42:19;103426.31;;;9.20;100.00
29549;BME280;16487;53.094;8.800;2023-02-04T12:44:46;103398.09;;;9.21;100.00
29549;BME280;16487;53.094;8.800;2023-02-04T12:47:13;103407.03;;;9.31;100.00
29549;BME280;16487;53.094;8.800;2023-02-04T12:49:42;103415.56;;;8.61;100.00
29549;BME280;16487;53.094;8.800;2023-02-04T12:52:09;103399.28;;;8.25;100.00
29549;BME280;16487;53.094;8.800;2023-02-04T12:54:36;103386.63;;;7.46;100.00
29549;BME280;16487;53.094;8.800;2023-02-04T12:57:04;103343.00;;;7.62;100.00